createdAt,value
2023-05-02T00:02:17.785Z,5.70
2023-05-02T00:04:44.775Z,4.70
2023-05-02T00:07:12.860Z,4.88
2023-05-02T00:09:39.590Z,4.43
2023-05-02T00:12:06.540Z,4.10
2023-05-02T00:14:33.271Z,5.50
2023-05-02T00:17:00.060Z,3.63
2023-05-02T00:19:26.826Z,4.10
2023-05-02T00:21:53.592Z,4.57
2023-05-02T00:24:21.614Z,5.18
2023-05-02T00:26:48.438Z,4.47
2023-05-02T00:29:15.139Z,3.40
2023-05-02T00:31:41.943Z,3.88
2023-05-02T00:34:08.665Z,5.03
2023-05-02T00:36:35.432Z,3.53
2023-05-02T00:39:02.204Z,3.45
2023-05-02T00:41:30.328Z,6.20
2023-05-02T00:43:58.238Z,4.55
2023-05-02T00:46:25.446Z,3.63
2023-05-02T00:48:52.867Z,3.33
2023-05-02T00:51:19.629Z,3.50
2023-05-02T00:53:46.495Z,4.47
2023-05-02T00:56:13.262Z,3.33
2023-05-02T00:58:41.894Z,3.60
2023-05-02T01:01:16.465Z,5.78
2023-05-02T01:03:55.567Z,4.18
2023-05-02T01:06:30.216Z,3.05
2023-05-02T01:09:16.463Z,2.95
2023-05-02T01:11:52.044Z,3.20
2023-05-02T01:14:22.107Z,3.83
2023-05-02T01:16:50.115Z,6.07
2023-05-02T01:19:25.261Z,2.60
2023-05-02T01:21:53.687Z,8.00
2023-05-02T01:24:26.304Z,4.38
2023-05-02T01:27:14.018Z,2.95
2023-05-02T01:29:43.295Z,3.38
2023-05-02T01:32:12.227Z,3.15
2023-05-02T01:34:42.992Z,2.47
2023-05-02T01:37:12.573Z,3.90
2023-05-02T01:39:40.940Z,2.30
2023-05-02T01:42:07.972Z,3.30
2023-05-02T01:44:36.342Z,4.38
2023-05-02T01:47:06.152Z,4.10
2023-05-02T01:49:34.308Z,3.55
2023-05-02T01:52:04.769Z,2.90
2023-05-02T01:54:35.110Z,2.70
2023-05-02T01:57:04.890Z,2.83
2023-05-02T01:59:33.256Z,4.03
2023-05-02T02:02:01.574Z,3.15
2023-05-02T02:04:30.759Z,3.28
2023-05-02T02:07:08.328Z,3.38
2023-05-02T02:09:35.180Z,3.03
2023-05-02T02:12:06.804Z,3.95
2023-05-02T02:14:36.567Z,2.97
2023-05-02T02:17:12.223Z,2.90
2023-05-02T02:19:42.201Z,3.30
2023-05-02T02:22:10.270Z,2.38
2023-05-02T02:24:38.909Z,5.88
2023-05-02T02:27:05.625Z,2.17
2023-05-02T02:29:33.022Z,2.88
2023-05-02T02:31:59.748Z,3.45
2023-05-02T02:34:26.532Z,4.18
2023-05-02T02:37:00.646Z,3.75
2023-05-02T02:44:43.442Z,2.33
2023-05-02T02:47:16.601Z,3.50
2023-05-02T02:49:49.255Z,3.05
2023-05-02T02:52:24.652Z,2.92
2023-05-02T02:54:56.746Z,2.75
2023-05-02T02:57:28.405Z,3.22
2023-05-02T03:00:12.844Z,2.88
2023-05-02T03:05:10.904Z,3.60
2023-05-02T03:07:39.002Z,2.90
2023-05-02T03:10:06.812Z,3.38
2023-05-02T03:12:33.631Z,2.53
2023-05-02T03:15:24.797Z,3.70
2023-05-02T03:17:51.590Z,5.32
2023-05-02T03:20:18.452Z,3.10
2023-05-02T03:22:46.523Z,3.85
2023-05-02T03:25:13.316Z,6.30
2023-05-02T03:27:40.011Z,2.97
2023-05-02T03:30:08.260Z,2.85
2023-05-02T03:32:34.993Z,3.50
2023-05-02T03:35:01.762Z,4.07
2023-05-02T03:37:28.473Z,2.92
2023-05-02T03:39:56.744Z,3.30
2023-05-02T03:42:24.200Z,4.13
2023-05-02T03:44:52.625Z,3.67
2023-05-02T03:47:19.616Z,3.92
2023-05-02T03:49:46.457Z,3.38
2023-05-02T03:52:13.168Z,3.38
2023-05-02T03:54:39.915Z,3.08
2023-05-02T03:57:07.988Z,2.45
2023-05-02T03:59:34.974Z,3.63
2023-05-02T04:02:01.720Z,3.63
2023-05-02T04:04:28.552Z,4.22
2023-05-02T04:06:55.364Z,3.60
2023-05-02T04:09:22.108Z,3.58
2023-05-02T04:11:48.845Z,8.88
2023-05-02T04:14:16.901Z,4.28
2023-05-02T04:16:48.092Z,3.05
2023-05-02T04:19:14.943Z,3.78
2023-05-02T04:21:41.648Z,3.92
2023-05-02T04:24:08.941Z,3.85
2023-05-02T04:26:35.761Z,3.70
2023-05-02T04:29:02.889Z,4.55
2023-05-02T04:31:31.654Z,4.40
2023-05-02T04:33:58.594Z,4.32
2023-05-02T04:36:25.490Z,4.15
2023-05-02T04:38:52.205Z,3.75
2023-05-02T04:41:18.929Z,3.30
2023-05-02T04:43:45.671Z,3.10
2023-05-02T04:46:12.446Z,3.72
2023-05-02T04:48:40.551Z,4.50
2023-05-02T04:51:07.301Z,5.07
2023-05-02T04:53:34.040Z,4.85
2023-05-02T04:56:00.936Z,4.35
2023-05-02T04:58:27.644Z,5.93
2023-05-02T05:00:54.535Z,5.20
2023-05-02T05:03:21.481Z,3.67
2023-05-02T05:05:49.710Z,3.97
2023-05-02T05:08:16.416Z,5.57
2023-05-02T05:10:43.124Z,4.60
2023-05-02T05:13:09.869Z,4.18
2023-05-02T05:15:36.580Z,3.80
2023-05-02T05:18:03.641Z,3.72
2023-05-02T05:20:30.428Z,4.85
2023-05-02T05:22:58.591Z,5.38
2023-05-02T05:25:26.049Z,4.95
2023-05-02T05:27:52.805Z,4.60
2023-05-02T05:30:19.577Z,5.38
2023-05-02T05:32:46.609Z,8.77
2023-05-02T05:35:13.514Z,6.82
2023-05-02T05:37:40.226Z,5.57
2023-05-02T05:40:09.556Z,5.00
2023-05-02T05:42:36.449Z,8.25
2023-05-02T05:45:03.325Z,6.28
2023-05-02T05:47:30.115Z,5.82
2023-05-02T05:49:57.111Z,7.47
2023-05-02T05:52:23.821Z,5.93
2023-05-02T05:54:53.908Z,5.20
2023-05-02T05:57:21.953Z,6.28
2023-05-02T05:59:48.711Z,6.30
2023-05-02T06:02:15.480Z,5.68
2023-05-02T06:04:42.378Z,5.68
2023-05-02T06:07:09.154Z,7.43
2023-05-02T06:09:35.987Z,6.45
2023-05-02T06:12:02.765Z,5.00
2023-05-02T06:14:30.792Z,6.50
2023-05-02T06:16:59.229Z,6.47
2023-05-02T06:19:25.950Z,6.80
2023-05-02T06:21:52.716Z,7.78
2023-05-02T06:24:19.404Z,6.80
2023-05-02T06:26:46.107Z,9.60
2023-05-02T06:29:13.474Z,9.00
2023-05-02T06:31:41.546Z,8.38
2023-05-02T06:34:08.273Z,7.88
2023-05-02T06:36:34.990Z,8.70
2023-05-02T06:39:01.718Z,9.50
2023-05-02T06:41:28.504Z,7.00
2023-05-02T06:43:55.185Z,8.82
2023-05-02T06:46:21.971Z,9.77
2023-05-02T06:48:50.042Z,9.73
2023-05-02T06:51:16.712Z,9.05
2023-05-02T06:53:43.418Z,7.38
2023-05-02T06:56:10.150Z,10.75
2023-05-02T06:58:36.842Z,10.35
2023-05-02T07:01:03.600Z,9.75
2023-05-02T07:03:30.393Z,9.27
2023-05-02T07:05:58.465Z,8.18
2023-05-02T07:08:25.160Z,9.88
2023-05-02T07:10:51.927Z,12.10
2023-05-02T07:13:18.643Z,8.98
2023-05-02T07:15:45.349Z,12.45
2023-05-02T07:18:12.113Z,12.32
2023-05-02T07:20:38.913Z,13.38
2023-05-02T07:23:06.976Z,11.98
2023-05-02T07:25:33.687Z,9.35
2023-05-02T07:28:00.452Z,13.48
2023-05-02T07:30:27.216Z,10.25
2023-05-02T07:32:54.010Z,9.52
2023-05-02T07:35:20.816Z,9.13
2023-05-02T07:37:47.551Z,16.40
2023-05-02T07:40:15.919Z,13.20
2023-05-02T07:42:42.644Z,11.02
2023-05-02T07:45:10.030Z,15.10
2023-05-02T07:47:36.823Z,14.00
2023-05-02T07:50:03.937Z,11.23
2023-05-02T07:52:30.829Z,11.02
2023-05-02T07:54:57.639Z,12.35
2023-05-02T07:57:26.684Z,13.45
2023-05-02T07:59:53.424Z,10.27
2023-05-02T08:02:20.467Z,12.57
2023-05-02T08:04:47.749Z,12.30
2023-05-02T08:07:14.528Z,10.52
2023-05-02T08:09:41.252Z,12.93
2023-05-02T08:12:08.053Z,11.90
2023-05-02T08:14:36.129Z,9.32
2023-05-02T08:17:02.882Z,11.70
2023-05-02T08:19:29.598Z,10.82
2023-05-02T08:21:56.327Z,15.88
2023-05-02T08:24:23.285Z,11.50
2023-05-02T08:26:50.005Z,11.88
2023-05-02T08:29:16.777Z,11.20
2023-05-02T08:31:44.933Z,9.68
2023-05-02T08:34:11.791Z,10.88
2023-05-02T08:36:38.507Z,10.80
2023-05-02T08:39:05.230Z,10.93
2023-05-02T08:41:32.107Z,12.40
2023-05-02T08:43:59.744Z,10.25
2023-05-02T08:46:27.020Z,14.40
2023-05-02T08:48:56.921Z,12.18
2023-05-02T08:51:24.365Z,10.32
2023-05-02T08:53:52.653Z,9.73
2023-05-02T08:56:19.579Z,7.70
2023-05-02T08:58:47.375Z,9.90
2023-05-02T09:01:16.262Z,9.30
2023-05-02T09:03:44.656Z,9.18
2023-05-02T09:06:15.106Z,8.55
2023-05-02T09:08:43.366Z,8.02
2023-05-02T09:11:11.211Z,10.80
2023-05-02T09:13:39.624Z,10.95
2023-05-02T09:16:08.106Z,9.82
2023-05-02T09:18:35.887Z,10.75
2023-05-02T09:21:05.493Z,10.65
2023-05-02T09:23:38.629Z,12.95
2023-05-02T09:26:19.735Z,11.20
2023-05-02T09:28:47.882Z,9.70
2023-05-02T09:31:22.987Z,11.65
2023-05-02T09:33:54.375Z,10.98
2023-05-02T09:36:22.313Z,12.25
2023-05-02T09:38:51.091Z,11.40
2023-05-02T09:41:17.913Z,9.43
2023-05-02T09:43:54.584Z,10.45
2023-05-02T09:46:21.339Z,16.95
2023-05-02T09:48:55.897Z,13.45
2023-05-02T09:51:23.930Z,11.30
2023-05-02T09:53:52.782Z,19.17
2023-05-02T09:56:19.678Z,10.18
2023-05-02T09:58:46.523Z,11.07
2023-05-02T10:01:15.447Z,14.70
2023-05-02T10:03:43.826Z,15.38
2023-05-02T10:06:11.510Z,12.63
2023-05-02T10:08:39.602Z,12.25
2023-05-02T10:11:09.067Z,13.45
2023-05-02T10:13:38.598Z,11.13
2023-05-02T10:16:07.121Z,13.48
2023-05-02T10:18:41.266Z,11.95
2023-05-02T10:23:36.272Z,12.65
2023-05-02T10:26:03.555Z,10.45
2023-05-02T10:28:31.880Z,11.52
2023-05-02T10:31:00.176Z,12.05
2023-05-02T10:33:27.514Z,11.82
2023-05-02T10:35:54.580Z,12.13
2023-05-02T10:38:24.113Z,9.57
2023-05-02T10:40:57.804Z,15.73
2023-05-02T10:43:28.047Z,12.20
2023-05-02T10:45:56.245Z,9.85
2023-05-02T10:48:24.001Z,12.82
2023-05-02T10:50:52.397Z,15.35
2023-05-02T10:53:30.382Z,10.57
2023-05-02T10:56:24.805Z,11.77
2023-05-02T10:58:53.522Z,7.97
2023-05-02T11:01:37.316Z,11.35
2023-05-02T11:04:06.021Z,13.18
2023-05-02T11:06:34.514Z,9.80
2023-05-02T11:09:32.106Z,9.82
2023-05-02T11:11:59.278Z,8.52
2023-05-02T11:14:46.537Z,9.48
2023-05-02T11:17:14.725Z,8.45
2023-05-02T11:20:22.952Z,9.02
2023-05-02T11:22:50.360Z,8.93
2023-05-02T11:25:37.088Z,6.38
2023-05-02T11:28:07.326Z,7.47
2023-05-02T11:30:42.228Z,8.63
2023-05-02T11:33:15.357Z,6.82
2023-05-02T11:35:43.960Z,6.50
2023-05-02T11:38:11.869Z,10.55
2023-05-02T11:40:38.640Z,7.63
2023-05-02T11:43:13.913Z,8.95
2023-05-02T11:45:40.725Z,8.57
2023-05-02T11:48:08.486Z,8.05
2023-05-02T11:50:48.657Z,7.93
2023-05-02T11:53:17.966Z,7.85
2023-05-02T11:55:46.346Z,8.90
2023-05-02T11:58:13.890Z,7.85
2023-05-02T12:00:40.629Z,9.63
2023-05-02T12:03:07.471Z,10.40
2023-05-02T12:05:35.787Z,7.75
2023-05-02T12:08:02.523Z,8.95
2023-05-02T12:10:38.741Z,8.88
2023-05-02T12:13:05.897Z,9.60
2023-05-02T12:15:32.886Z,8.07
2023-05-02T12:17:59.960Z,12.27
2023-05-02T12:20:26.745Z,8.20
2023-05-02T12:22:54.937Z,7.55
2023-05-02T12:25:22.004Z,9.68
2023-05-02T12:28:01.349Z,6.43
2023-05-02T12:30:28.770Z,9.27
2023-05-02T12:32:59.670Z,6.78
2023-05-02T12:35:26.540Z,7.05
2023-05-02T12:37:55.186Z,8.10
2023-05-02T12:40:22.555Z,8.98
2023-05-02T12:42:59.130Z,5.28
2023-05-02T12:45:25.908Z,6.32
2023-05-02T12:47:52.644Z,9.43
2023-05-02T12:50:19.495Z,7.90
2023-05-02T12:52:49.397Z,9.52
2023-05-02T12:55:17.735Z,8.88
2023-05-02T12:57:44.518Z,9.07
2023-05-02T13:00:12.485Z,8.25
2023-05-02T13:02:39.242Z,9.02
2023-05-02T13:05:14.201Z,7.13
2023-05-02T13:07:41.209Z,8.13
2023-05-02T13:10:08.751Z,8.50
2023-05-02T13:12:36.921Z,6.13
2023-05-02T13:15:04.143Z,8.10
2023-05-02T13:17:31.116Z,6.03
2023-05-02T13:20:01.497Z,7.32
2023-05-02T13:22:29.240Z,7.50
2023-05-02T13:24:56.063Z,6.93
2023-05-02T13:27:23.672Z,6.55
2023-05-02T13:29:52.385Z,8.25
2023-05-02T13:32:19.399Z,7.53
2023-05-02T13:34:46.240Z,7.50
2023-05-02T13:37:13.028Z,8.57
2023-05-02T13:39:39.847Z,8.98
2023-05-02T13:42:06.604Z,10.90
2023-05-02T13:44:33.430Z,7.93
2023-05-02T13:47:01.497Z,7.70
2023-05-02T13:49:28.246Z,7.35
2023-05-02T13:51:55.042Z,6.55
2023-05-02T13:54:21.784Z,8.13
2023-05-02T13:56:48.589Z,5.30
2023-05-02T13:59:15.306Z,6.22
2023-05-02T14:01:42.090Z,5.93
2023-05-02T14:04:10.303Z,5.88
2023-05-02T14:06:38.149Z,6.25
2023-05-02T14:09:05.013Z,8.57
2023-05-02T14:11:31.768Z,7.65
2023-05-02T14:13:58.487Z,7.65
2023-05-02T14:16:25.263Z,7.63
2023-05-02T14:18:51.955Z,6.95
2023-05-02T14:21:20.055Z,6.10
2023-05-02T14:23:46.766Z,5.72
2023-05-02T14:26:13.472Z,6.40
2023-05-02T14:28:40.559Z,6.72
2023-05-02T14:31:07.510Z,6.55
2023-05-02T14:33:34.359Z,7.68
2023-05-02T14:36:01.203Z,5.88
2023-05-02T14:38:29.368Z,7.82
2023-05-02T14:40:56.112Z,5.90
2023-05-02T14:43:22.822Z,5.80
2023-05-02T14:45:49.615Z,7.60
2023-05-02T14:48:16.373Z,7.47
2023-05-02T14:50:43.190Z,6.05
2023-05-02T14:53:10.058Z,7.63
2023-05-02T14:55:39.282Z,7.65
2023-05-02T14:58:06.281Z,6.47
2023-05-02T15:00:33.904Z,6.55
2023-05-02T15:03:00.791Z,5.38
2023-05-02T15:05:27.725Z,5.47
2023-05-02T15:07:54.562Z,5.88
2023-05-02T15:10:21.473Z,4.78
2023-05-02T15:12:49.660Z,7.03
2023-05-02T15:15:16.628Z,6.72
2023-05-02T15:17:43.371Z,7.70
2023-05-02T15:20:11.504Z,8.00
2023-05-02T15:22:38.196Z,9.35
2023-05-02T15:25:05.884Z,5.95
2023-05-02T15:27:32.626Z,5.47
2023-05-02T15:30:34.876Z,14.45
2023-05-02T15:33:01.950Z,6.45
2023-05-02T15:35:28.775Z,5.75
2023-05-02T15:37:55.580Z,6.38
2023-05-02T15:40:22.316Z,12.55
2023-05-02T15:42:49.048Z,8.65
2023-05-02T15:45:18.108Z,5.90
2023-05-02T15:47:46.163Z,7.60
2023-05-02T15:50:13.380Z,5.90
2023-05-02T15:52:40.160Z,6.95
2023-05-02T15:55:07.255Z,5.32
2023-05-02T15:57:33.976Z,6.28
2023-05-02T16:00:00.939Z,5.05
2023-05-02T16:02:27.916Z,9.55
2023-05-02T16:04:58.445Z,6.40
2023-05-02T16:07:25.210Z,6.35
2023-05-02T16:09:51.913Z,6.53
2023-05-02T16:12:18.624Z,4.35
2023-05-02T16:14:45.334Z,5.57
2023-05-02T16:17:12.036Z,4.43
2023-05-02T16:19:39.350Z,7.30
2023-05-02T16:22:07.427Z,6.20
2023-05-02T16:24:34.208Z,6.22
2023-05-02T16:27:00.951Z,4.88
2023-05-02T16:29:27.681Z,4.55
2023-05-02T16:31:54.580Z,3.72
2023-05-02T16:34:21.436Z,3.40
2023-05-02T16:36:48.141Z,5.45
2023-05-02T16:39:16.213Z,5.35
2023-05-02T16:41:42.934Z,7.63
2023-05-02T16:44:09.680Z,5.50
2023-05-02T16:46:36.460Z,6.22
2023-05-02T16:49:03.393Z,5.07
2023-05-02T16:51:30.187Z,4.65
2023-05-02T16:53:59.415Z,5.15
2023-05-02T16:56:33.567Z,5.57
2023-05-02T17:01:26.918Z,4.28
2023-05-02T17:03:53.648Z,4.28
2023-05-02T17:06:20.504Z,4.07
2023-05-02T17:08:47.260Z,3.85
2023-05-02T17:11:13.972Z,4.82
2023-05-02T17:13:42.099Z,3.40
2023-05-02T17:16:08.869Z,5.10
2023-05-02T17:18:35.648Z,3.33
2023-05-02T17:21:03.817Z,2.95
2023-05-02T17:23:30.895Z,3.88
2023-05-02T17:25:58.516Z,5.00
2023-05-02T17:28:25.295Z,3.10
2023-05-02T17:30:53.378Z,3.17
2023-05-02T17:33:20.602Z,4.85
2023-05-02T17:35:49.405Z,2.80
2023-05-02T17:38:16.129Z,2.83
2023-05-02T17:40:42.883Z,2.95
2023-05-02T17:43:09.634Z,4.03
2023-05-02T17:45:36.353Z,3.20
2023-05-02T17:48:04.626Z,2.45
2023-05-02T17:50:31.395Z,2.72
2023-05-02T17:52:59.197Z,3.38
2023-05-02T17:55:26.011Z,3.83
2023-05-02T17:57:52.790Z,4.22
2023-05-02T18:00:19.815Z,3.58
2023-05-02T18:02:46.622Z,3.17
2023-05-02T18:05:14.999Z,3.13
2023-05-02T18:07:41.694Z,4.57
2023-05-02T18:10:09.023Z,3.38
2023-05-02T18:12:35.871Z,3.22
2023-05-02T18:15:03.011Z,2.78
2023-05-02T18:17:32.332Z,2.55
2023-05-02T18:19:59.118Z,2.83
2023-05-02T18:22:27.208Z,3.25
2023-05-02T18:24:53.948Z,3.20
2023-05-02T18:27:20.701Z,4.32
2023-05-02T18:29:47.462Z,3.17
2023-05-02T18:32:14.163Z,3.88
2023-05-02T18:34:40.967Z,2.75
2023-05-02T18:37:07.723Z,3.10
2023-05-02T18:39:35.953Z,8.52
2023-05-02T18:42:03.316Z,7.78
2023-05-02T18:44:30.785Z,7.95
2023-05-02T18:46:58.055Z,10.38
2023-05-02T18:49:25.211Z,18.17
2023-05-02T18:51:53.213Z,14.50
2023-05-02T18:54:20.158Z,14.98
2023-05-02T18:56:50.277Z,16.25
2023-05-02T18:59:17.070Z,11.90
2023-05-02T19:01:46.020Z,10.73
2023-05-02T19:04:13.025Z,5.57
2023-05-02T19:06:39.829Z,5.82
2023-05-02T19:09:06.592Z,5.95
2023-05-02T19:11:33.450Z,3.35
2023-05-02T19:14:01.571Z,3.65
2023-05-02T19:16:28.544Z,3.40
2023-05-02T19:18:55.268Z,3.22
2023-05-02T19:21:22.093Z,3.00
2023-05-02T19:23:50.193Z,3.17
2023-05-02T19:26:17.581Z,3.17
2023-05-02T19:28:47.484Z,3.80
2023-05-02T19:31:17.350Z,6.50
2023-05-02T19:33:44.700Z,3.00
2023-05-02T19:36:11.420Z,3.53
2023-05-02T19:38:38.115Z,3.33
2023-05-02T19:41:05.029Z,6.65
2023-05-02T19:43:31.894Z,2.92
2023-05-02T19:45:58.692Z,3.60
2023-05-02T19:48:27.111Z,2.80
2023-05-02T19:50:54.282Z,2.58
2023-05-02T19:53:23.497Z,4.97
2023-05-02T19:55:50.207Z,5.60
2023-05-02T19:58:19.367Z,5.45
2023-05-02T20:00:46.220Z,4.35
2023-05-02T20:03:13.059Z,9.02
2023-05-02T20:05:41.190Z,3.13
2023-05-02T20:08:07.963Z,4.40
2023-05-02T20:10:35.479Z,4.05
2023-05-02T20:13:02.461Z,3.33
2023-05-02T20:15:29.317Z,2.92
2023-05-02T20:17:56.053Z,4.05
2023-05-02T20:20:23.125Z,3.95
2023-05-02T20:22:51.252Z,3.05
2023-05-02T20:25:19.343Z,3.67
2023-05-02T20:27:46.441Z,2.60
2023-05-02T20:30:13.413Z,5.78
2023-05-02T20:32:40.168Z,3.35
2023-05-02T20:35:10.614Z,2.95
2023-05-02T20:37:40.377Z,5.80
2023-05-02T20:40:09.902Z,4.13
2023-05-02T20:42:36.929Z,5.82
2023-05-02T20:45:04.306Z,3.05
2023-05-02T20:47:31.323Z,3.40
2023-05-02T20:49:58.420Z,3.78
2023-05-02T20:52:25.502Z,3.67
2023-05-02T20:54:53.905Z,3.90
2023-05-02T20:57:22.203Z,3.17
2023-05-02T20:59:55.164Z,2.85
2023-05-02T21:02:21.857Z,2.85
2023-05-02T21:04:48.590Z,3.08
2023-05-02T21:07:15.340Z,3.47
2023-05-02T21:09:45.199Z,5.82
2023-05-02T21:12:11.931Z,4.00
2023-05-02T21:14:40.053Z,4.45
2023-05-02T21:17:06.768Z,4.13
2023-05-02T21:19:33.506Z,2.95
2023-05-02T21:22:00.647Z,3.75
2023-05-02T21:24:27.373Z,3.92
2023-05-02T21:26:54.081Z,6.22
2023-05-02T21:29:20.799Z,4.00
2023-05-02T21:31:49.228Z,4.70
2023-05-02T21:34:16.043Z,4.65
2023-05-02T21:36:45.056Z,4.50
2023-05-02T21:39:11.836Z,5.78
2023-05-02T21:41:38.565Z,3.78
2023-05-02T21:44:05.275Z,2.42
2023-05-02T21:46:32.049Z,3.15
2023-05-02T21:49:01.181Z,3.58
2023-05-02T21:51:27.898Z,2.47
2023-05-02T21:53:54.618Z,2.47
2023-05-02T21:56:21.343Z,2.33
2023-05-02T21:58:48.063Z,2.97
2023-05-02T22:01:14.853Z,4.07
2023-05-02T22:03:41.737Z,3.50
2023-05-02T22:06:09.876Z,3.58
2023-05-02T22:08:36.640Z,3.47
2023-05-02T22:11:05.887Z,3.78
2023-05-02T22:13:32.608Z,3.47
2023-05-02T22:15:59.359Z,2.50
2023-05-02T22:18:26.155Z,2.38
2023-05-02T22:20:52.940Z,2.70
2023-05-02T22:23:21.009Z,2.33
2023-05-02T22:25:47.719Z,5.03
2023-05-02T22:28:14.478Z,3.13
2023-05-02T22:30:41.767Z,4.43
2023-05-02T22:33:08.662Z,2.80
2023-05-02T22:35:36.554Z,5.72
2023-05-02T22:38:03.510Z,3.05
2023-05-02T22:40:34.656Z,3.70
2023-05-02T22:43:02.693Z,2.92
2023-05-02T22:45:29.506Z,3.20
2023-05-02T22:47:56.412Z,5.50
2023-05-02T22:50:23.393Z,2.83
2023-05-02T22:52:50.143Z,5.40
2023-05-02T22:55:16.916Z,3.15
2023-05-02T22:57:44.971Z,4.82
2023-05-02T23:00:12.571Z,2.72
2023-05-02T23:02:39.452Z,4.78
2023-05-02T23:05:06.859Z,6.65
2023-05-02T23:07:33.611Z,4.78
2023-05-02T23:10:00.622Z,4.25
2023-05-02T23:12:28.788Z,4.55
2023-05-02T23:14:59.759Z,4.00
2023-05-02T23:17:26.527Z,3.33
2023-05-02T23:19:53.271Z,4.10
2023-05-02T23:22:20.402Z,3.40
2023-05-02T23:24:47.221Z,5.00
2023-05-02T23:27:13.985Z,5.28
2023-05-02T23:29:43.534Z,3.72
2023-05-02T23:32:11.856Z,3.35
2023-05-02T23:34:38.657Z,4.53
2023-05-02T23:37:06.652Z,5.82
2023-05-02T23:39:33.576Z,5.38
2023-05-02T23:42:00.333Z,4.43
2023-05-02T23:44:27.086Z,3.70
2023-05-02T23:46:53.932Z,3.72
2023-05-02T23:49:22.058Z,4.78
2023-05-02T23:51:48.877Z,3.60
2023-05-02T23:54:15.594Z,3.70
2023-05-02T23:56:42.559Z,6.03
2023-05-02T23:59:09.844Z,5.07
